sensor_id;sensor_type;location;lat;lon;timestamp;temperature;humidity
79750;SHT31;69233;51.968;5.658;2023-11-21T00:00:11;25.7;40.8
79750;SHT31;69233;51.968;5.658;2023-11-21T00:02:41;25.7;40.6
79750;SHT31;69233;51.968;5.658;2023-11-21T00:05:12;25.7;40.6
79750;SHT31;69233;51.968;5.658;2023-11-21T00:07:43;25.7;40.7
79750;SHT31;69233;51.968;5.658;2023-11-21T00:10:12;25.7;40.5
79750;SHT31;69233;51.968;5.658;2023-11-21T00:12:42;25.7;40.5
79750;SHT31;69233;51.968;5.658;2023-11-21T00:15:13;25.6;40.4
79750;SHT31;69233;51.968;5.658;2023-11-21T00:17:42;25.6;40.6
79750;SHT31;69233;51.968;5.658;2023-11-21T00:20:11;25.6;40.5
79750;SHT31;69233;51.968;5.658;2023-11-21T00:22:41;25.6;40.5
79750;SHT31;69233;51.968;5.658;2023-11-21T00:25:10;25.6;40.4
79750;SHT31;69233;51.968;5.658;2023-11-21T00:27:43;25.6;40.4
79750;SHT31;69233;51.968;5.658;2023-11-21T00:30:12;25.6;40.4
79750;SHT31;69233;51.968;5.658;2023-11-21T00:32:41;25.6;40.2
79750;SHT31;69233;51.968;5.658;2023-11-21T00:35:10;25.6;40.3
79750;SHT31;69233;51.968;5.658;2023-11-21T00:37:39;25.6;40.3
79750;SHT31;69233;51.968;5.658;2023-11-21T00:40:10;25.6;40.3
79750;SHT31;69233;51.968;5.658;2023-11-21T00:42:38;25.6;40.3
79750;SHT31;69233;51.968;5.658;2023-11-21T00:45:08;25.6;40.1
79750;SHT31;69233;51.968;5.658;2023-11-21T00:47:37;25.6;40.0
79750;SHT31;69233;51.968;5.658;2023-11-21T00:50:07;25.6;40.2
79750;SHT31;69233;51.968;5.658;2023-11-21T00:52:36;25.6;40.2
79750;SHT31;69233;51.968;5.658;2023-11-21T00:55:06;25.6;40.1
79750;SHT31;69233;51.968;5.658;2023-11-21T00:57:35;25.6;40.0
79750;SHT31;69233;51.968;5.658;2023-11-21T01:00:05;25.6;40.0
79750;SHT31;69233;51.968;5.658;2023-11-21T01:02:37;25.6;40.0
79750;SHT31;69233;51.968;5.658;2023-11-21T01:05:07;25.6;40.0
79750;SHT31;69233;51.968;5.658;2023-11-21T01:07:37;25.5;39.8
79750;SHT31;69233;51.968;5.658;2023-11-21T01:10:06;25.5;39.7
79750;SHT31;69233;51.968;5.658;2023-11-21T01:12:37;25.5;39.9
79750;SHT31;69233;51.968;5.658;2023-11-21T01:15:07;25.5;39.9
79750;SHT31;69233;51.968;5.658;2023-11-21T01:17:38;25.5;39.7
79750;SHT31;69233;51.968;5.658;2023-11-21T01:20:08;25.5;39.7
79750;SHT31;69233;51.968;5.658;2023-11-21T01:22:39;25.5;39.7
79750;SHT31;69233;51.968;5.658;2023-11-21T01:25:08;25.5;39.7
79750;SHT31;69233;51.968;5.658;2023-11-21T01:27:37;25.5;39.7
79750;SHT31;69233;51.968;5.658;2023-11-21T01:30:09;25.5;39.8
79750;SHT31;69233;51.968;5.658;2023-11-21T01:32:39;25.5;39.6
79750;SHT31;69233;51.968;5.658;2023-11-21T01:35:09;25.5;39.6
79750;SHT31;69233;51.968;5.658;2023-11-21T01:37:38;25.5;39.6
79750;SHT31;69233;51.968;5.658;2023-11-21T01:40:08;25.5;39.6
79750;SHT31;69233;51.968;5.658;2023-11-21T01:42:40;25.5;39.6
79750;SHT31;69233;51.968;5.658;2023-11-21T01:45:11;25.5;39.6
79750;SHT31;69233;51.968;5.658;2023-11-21T01:47:41;25.5;39.5
79750;SHT31;69233;51.968;5.658;2023-11-21T01:50:14;25.5;39.7
79750;SHT31;69233;51.968;5.658;2023-11-21T01:52:45;25.5;39.5
79750;SHT31;69233;51.968;5.658;2023-11-21T01:55:16;25.5;39.6
79750;SHT31;69233;51.968;5.658;2023-11-21T01:57:47;25.5;39.4
79750;SHT31;69233;51.968;5.658;2023-11-21T02:00:20;25.5;39.5
79750;SHT31;69233;51.968;5.658;2023-11-21T02:02:50;25.5;39.5
79750;SHT31;69233;51.968;5.658;2023-11-21T02:05:19;25.5;39.4
79750;SHT31;69233;51.968;5.658;2023-11-21T02:07:48;25.5;39.3
79750;SHT31;69233;51.968;5.658;2023-11-21T02:10:19;25.5;39.3
79750;SHT31;69233;51.968;5.658;2023-11-21T02:12:49;25.5;39.5
79750;SHT31;69233;51.968;5.658;2023-11-21T02:15:19;25.5;39.2
79750;SHT31;69233;51.968;5.658;2023-11-21T02:17:50;25.5;39.4
79750;SHT31;69233;51.968;5.658;2023-11-21T02:20:21;25.5;39.3
79750;SHT31;69233;51.968;5.658;2023-11-21T02:22:51;25.5;39.3
79750;SHT31;69233;51.968;5.658;2023-11-21T02:25:24;25.5;39.3
79750;SHT31;69233;51.968;5.658;2023-11-21T02:27:54;25.5;39.3
79750;SHT31;69233;51.968;5.658;2023-11-21T02:30:23;25.5;39.1
79750;SHT31;69233;51.968;5.658;2023-11-21T02:32:54;25.5;39.2
79750;SHT31;69233;51.968;5.658;2023-11-21T02:35:25;25.5;39.3
79750;SHT31;69233;51.968;5.658;2023-11-21T02:37:54;25.4;39.2
79750;SHT31;69233;51.968;5.658;2023-11-21T02:40:23;25.4;39.1
79750;SHT31;69233;51.968;5.658;2023-11-21T02:42:52;25.4;39.1
79750;SHT31;69233;51.968;5.658;2023-11-21T02:45:22;25.4;39.2
79750;SHT31;69233;51.968;5.658;2023-11-21T02:47:50;25.4;39.1
79750;SHT31;69233;51.968;5.658;2023-11-21T02:50:19;25.4;39.0
79750;SHT31;69233;51.968;5.658;2023-11-21T02:52:49;25.4;39.2
79750;SHT31;69233;51.968;5.658;2023-11-21T02:55:18;25.4;39.1
79750;SHT31;69233;51.968;5.658;2023-11-21T02:57:48;25.4;39.0
79750;SHT31;69233;51.968;5.658;2023-11-21T03:00:17;25.4;39.0
79750;SHT31;69233;51.968;5.658;2023-11-21T03:02:50;25.4;39.0
79750;SHT31;69233;51.968;5.658;2023-11-21T03:05:19;25.4;39.0
79750;SHT31;69233;51.968;5.658;2023-11-21T03:07:48;25.4;38.9
79750;SHT31;69233;51.968;5.658;2023-11-21T03:10:16;25.4;39.0
79750;SHT31;69233;51.968;5.658;2023-11-21T03:12:45;25.4;39.0
79750;SHT31;69233;51.968;5.658;2023-11-21T03:15:14;25.4;39.0
79750;SHT31;69233;51.968;5.658;2023-11-21T03:17:42;25.4;39.0
79750;SHT31;69233;51.968;5.658;2023-11-21T03:20:11;25.4;38.9
79750;SHT31;69233;51.968;5.658;2023-11-21T03:22:42;25.4;39.0
79750;SHT31;69233;51.968;5.658;2023-11-21T03:25:13;25.4;38.9
79750;SHT31;69233;51.968;5.658;2023-11-21T03:27:43;25.4;38.9
79750;SHT31;69233;51.968;5.658;2023-11-21T03:30:13;25.4;38.8
79750;SHT31;69233;51.968;5.658;2023-11-21T03:32:43;25.4;38.8
79750;SHT31;69233;51.968;5.658;2023-11-21T03:35:11;25.4;38.9
79750;SHT31;69233;51.968;5.658;2023-11-21T03:37:40;25.4;38.9
79750;SHT31;69233;51.968;5.658;2023-11-21T03:40:11;25.4;38.8
79750;SHT31;69233;51.968;5.658;2023-11-21T03:42:40;25.4;38.8
79750;SHT31;69233;51.968;5.658;2023-11-21T03:45:10;25.4;38.9
79750;SHT31;69233;51.968;5.658;2023-11-21T03:47:38;25.4;38.9
79750;SHT31;69233;51.968;5.658;2023-11-21T03:50:08;25.4;38.9
79750;SHT31;69233;51.968;5.658;2023-11-21T03:52:37;25.4;38.9
79750;SHT31;69233;51.968;5.658;2023-11-21T03:55:07;25.4;38.9
79750;SHT31;69233;51.968;5.658;2023-11-21T03:57:36;25.4;38.8
79750;SHT31;69233;51.968;5.658;2023-11-21T04:00:06;25.4;38.8
79750;SHT31;69233;51.968;5.658;2023-11-21T04:02:37;25.4;38.8
79750;SHT31;69233;51.968;5.658;2023-11-21T04:05:06;25.4;38.9
79750;SHT31;69233;51.968;5.658;2023-11-21T04:07:35;25.4;38.9
79750;SHT31;69233;51.968;5.658;2023-11-21T04:10:09;25.4;38.7
79750;SHT31;69233;51.968;5.658;2023-11-21T04:12:39;25.4;38.7
79750;SHT31;69233;51.968;5.658;2023-11-21T04:15:10;25.4;38.7
79750;SHT31;69233;51.968;5.658;2023-11-21T04:17:40;25.4;38.7
79750;SHT31;69233;51.968;5.658;2023-11-21T04:20:09;25.4;38.8
79750;SHT31;69233;51.968;5.658;2023-11-21T04:22:39;25.4;38.7
79750;SHT31;69233;51.968;5.658;2023-11-21T04:25:12;25.4;38.8
79750;SHT31;69233;51.968;5.658;2023-11-21T04:27:43;25.4;38.7
79750;SHT31;69233;51.968;5.658;2023-11-21T04:30:13;25.4;38.8
79750;SHT31;69233;51.968;5.658;2023-11-21T04:32:44;25.4;38.8
79750;SHT31;69233;51.968;5.658;2023-11-21T04:35:15;25.4;38.8
79750;SHT31;69233;51.968;5.658;2023-11-21T04:37:43;25.4;38.8
79750;SHT31;69233;51.968;5.658;2023-11-21T04:40:12;25.4;38.7
79750;SHT31;69233;51.968;5.658;2023-11-21T04:42:41;25.4;38.7
79750;SHT31;69233;51.968;5.658;2023-11-21T04:45:12;25.4;38.7
79750;SHT31;69233;51.968;5.658;2023-11-21T04:47:40;25.4;38.7
79750;SHT31;69233;51.968;5.658;2023-11-21T04:50:11;25.4;38.7
79750;SHT31;69233;51.968;5.658;2023-11-21T04:52:40;25.4;38.8
79750;SHT31;69233;51.968;5.658;2023-11-21T04:55:11;25.4;38.7
79750;SHT31;69233;51.968;5.658;2023-11-21T04:57:39;25.4;38.6
79750;SHT31;69233;51.968;5.658;2023-11-21T05:00:10;25.4;38.6
79750;SHT31;69233;51.968;5.658;2023-11-21T05:02:39;25.4;38.7
79750;SHT31;69233;51.968;5.658;2023-11-21T05:05:10;25.4;38.6
79750;SHT31;69233;51.968;5.658;2023-11-21T05:07:39;25.4;38.6
79750;SHT31;69233;51.968;5.658;2023-11-21T05:10:10;25.4;38.7
79750;SHT31;69233;51.968;5.658;2023-11-21T05:12:42;25.4;38.7
79750;SHT31;69233;51.968;5.658;2023-11-21T05:15:14;25.4;38.7
79750;SHT31;69233;51.968;5.658;2023-11-21T05:17:44;25.4;38.7
79750;SHT31;69233;51.968;5.658;2023-11-21T05:20:15;25.4;38.6
79750;SHT31;69233;51.968;5.658;2023-11-21T05:22:47;25.4;38.7
79750;SHT31;69233;51.968;5.658;2023-11-21T05:25:17;25.4;38.6
79750;SHT31;69233;51.968;5.658;2023-11-21T05:27:46;25.4;38.7
79750;SHT31;69233;51.968;5.658;2023-11-21T05:30:15;25.4;38.6
79750;SHT31;69233;51.968;5.658;2023-11-21T05:32:44;25.4;38.7
79750;SHT31;69233;51.968;5.658;2023-11-21T05:35:13;25.4;38.7
79750;SHT31;69233;51.968;5.658;2023-11-21T05:37:42;25.4;38.7
79750;SHT31;69233;51.968;5.658;2023-11-21T05:40:13;25.4;38.7
79750;SHT31;69233;51.968;5.658;2023-11-21T05:42:41;25.4;38.7
79750;SHT31;69233;51.968;5.658;2023-11-21T05:45:10;25.4;38.6
79750;SHT31;69233;51.968;5.658;2023-11-21T05:47:41;25.4;38.7
79750;SHT31;69233;51.968;5.658;2023-11-21T05:50:13;25.4;38.7
79750;SHT31;69233;51.968;5.658;2023-11-21T05:52:44;25.4;38.7
79750;SHT31;69233;51.968;5.658;2023-11-21T05:55:14;25.4;38.6
79750;SHT31;69233;51.968;5.658;2023-11-21T05:57:43;25.4;38.7
79750;SHT31;69233;51.968;5.658;2023-11-21T06:00:14;25.4;38.7
79750;SHT31;69233;51.968;5.658;2023-11-21T06:02:46;25.4;38.7
79750;SHT31;69233;51.968;5.658;2023-11-21T06:05:19;25.4;38.7
79750;SHT31;69233;51.968;5.658;2023-11-21T06:07:51;25.4;38.7
79750;SHT31;69233;51.968;5.658;2023-11-21T06:10:22;25.4;38.7
79750;SHT31;69233;51.968;5.658;2023-11-21T06:12:51;25.4;38.7
79750;SHT31;69233;51.968;5.658;2023-11-21T06:15:20;25.4;38.6
79750;SHT31;69233;51.968;5.658;2023-11-21T06:17:50;25.4;38.7
79750;SHT31;69233;51.968;5.658;2023-11-21T06:20:21;25.4;38.7
79750;SHT31;69233;51.968;5.658;2023-11-21T06:22:51;25.4;38.7
79750;SHT31;69233;51.968;5.658;2023-11-21T06:25:20;25.4;38.7
79750;SHT31;69233;51.968;5.658;2023-11-21T06:27:50;25.4;38.6
79750;SHT31;69233;51.968;5.658;2023-11-21T06:30:21;25.4;38.7
79750;SHT31;69233;51.968;5.658;2023-11-21T06:32:50;25.4;38.7
79750;SHT31;69233;51.968;5.658;2023-11-21T06:35:19;25.5;38.6
79750;SHT31;69233;51.968;5.658;2023-11-21T06:37:47;25.5;38.6
79750;SHT31;69233;51.968;5.658;2023-11-21T06:40:18;25.5;38.7
79750;SHT31;69233;51.968;5.658;2023-11-21T06:42:47;25.5;38.7
79750;SHT31;69233;51.968;5.658;2023-11-21T06:45:17;25.5;38.7
79750;SHT31;69233;51.968;5.658;2023-11-21T06:47:46;25.5;38.7
79750;SHT31;69233;51.968;5.658;2023-11-21T06:50:15;25.5;38.7
79750;SHT31;69233;51.968;5.658;2023-11-21T06:52:43;25.5;38.7
79750;SHT31;69233;51.968;5.658;2023-11-21T06:55:12;25.5;38.7
79750;SHT31;69233;51.968;5.658;2023-11-21T06:57:42;25.5;38.7
79750;SHT31;69233;51.968;5.658;2023-11-21T07:00:13;25.5;38.5
79750;SHT31;69233;51.968;5.658;2023-11-21T07:02:45;25.5;38.5
79750;SHT31;69233;51.968;5.658;2023-11-21T07:05:14;25.5;38.7
79750;SHT31;69233;51.968;5.658;2023-11-21T07:07:47;25.5;38.8
79750;SHT31;69233;51.968;5.658;2023-11-21T07:10:17;25.4;39.0
79750;SHT31;69233;51.968;5.658;2023-11-21T07:12:45;25.4;39.1
79750;SHT31;69233;51.968;5.658;2023-11-21T07:15:15;25.4;39.3
79750;SHT31;69233;51.968;5.658;2023-11-21T07:17:46;25.4;39.4
79750;SHT31;69233;51.968;5.658;2023-11-21T07:20:15;25.4;39.5
79750;SHT31;69233;51.968;5.658;2023-11-21T07:22:45;25.4;39.7
79750;SHT31;69233;51.968;5.658;2023-11-21T07:25:13;25.4;39.8
79750;SHT31;69233;51.968;5.658;2023-11-21T07:27:42;25.4;39.8
79750;SHT31;69233;51.968;5.658;2023-11-21T07:30:12;25.4;39.8
79750;SHT31;69233;51.968;5.658;2023-11-21T07:32:41;25.4;39.8
79750;SHT31;69233;51.968;5.658;2023-11-21T07:35:11;25.4;39.9
79750;SHT31;69233;51.968;5.658;2023-11-21T07:37:39;25.4;39.9
79750;SHT31;69233;51.968;5.658;2023-11-21T07:40:10;25.4;40.0
79750;SHT31;69233;51.968;5.658;2023-11-21T07:42:41;25.4;40.2
79750;SHT31;69233;51.968;5.658;2023-11-21T07:45:11;25.4;39.8
79750;SHT31;69233;51.968;5.658;2023-11-21T07:47:41;25.4;40.0
79750;SHT31;69233;51.968;5.658;2023-11-21T07:50:11;25.4;40.0
79750;SHT31;69233;51.968;5.658;2023-11-21T07:52:40;25.4;40.2
79750;SHT31;69233;51.968;5.658;2023-11-21T07:55:11;25.4;40.2
79750;SHT31;69233;51.968;5.658;2023-11-21T07:57:40;25.4;40.2
79750;SHT31;69233;51.968;5.658;2023-11-21T08:00:10;25.4;40.3
79750;SHT31;69233;51.968;5.658;2023-11-21T08:02:39;25.4;40.3
79750;SHT31;69233;51.968;5.658;2023-11-21T08:05:09;25.4;40.2
79750;SHT31;69233;51.968;5.658;2023-11-21T08:07:37;25.4;40.3
79750;SHT31;69233;51.968;5.658;2023-11-21T08:10:08;25.4;40.2
79750;SHT31;69233;51.968;5.658;2023-11-21T08:12:38;25.4;40.2
79750;SHT31;69233;51.968;5.658;2023-11-21T08:15:11;25.4;40.2
79750;SHT31;69233;51.968;5.658;2023-11-21T08:17:41;25.4;40.3
79750;SHT31;69233;51.968;5.658;2023-11-21T08:20:11;25.4;40.3
79750;SHT31;69233;51.968;5.658;2023-11-21T08:22:44;25.4;40.3
79750;SHT31;69233;51.968;5.658;2023-11-21T08:25:14;25.4;40.3
79750;SHT31;69233;51.968;5.658;2023-11-21T08:27:46;25.4;40.4
79750;SHT31;69233;51.968;5.658;2023-11-21T08:30:15;25.4;40.4
79750;SHT31;69233;51.968;5.658;2023-11-21T08:32:45;25.4;40.4
79750;SHT31;69233;51.968;5.658;2023-11-21T08:35:14;25.4;40.5
79750;SHT31;69233;51.968;5.658;2023-11-21T08:37:43;25.4;40.4
79750;SHT31;69233;51.968;5.658;2023-11-21T08:40:12;25.4;40.5
79750;SHT31;69233;51.968;5.658;2023-11-21T08:42:43;25.4;40.5
79750;SHT31;69233;51.968;5.658;2023-11-21T08:45:12;25.4;40.6
79750;SHT31;69233;51.968;5.658;2023-11-21T08:47:41;25.4;40.5
79750;SHT31;69233;51.968;5.658;2023-11-21T08:50:12;25.4;40.5
79750;SHT31;69233;51.968;5.658;2023-11-21T08:52:44;25.4;40.5
79750;SHT31;69233;51.968;5.658;2023-11-21T08:55:14;25.4;40.6
79750;SHT31;69233;51.968;5.658;2023-11-21T08:57:44;25.4;40.6
79750;SHT31;69233;51.968;5.658;2023-11-21T09:00:14;25.4;40.6
79750;SHT31;69233;51.968;5.658;2023-11-21T09:02:44;25.4;40.5
79750;SHT31;69233;51.968;5.658;2023-11-21T09:05:29;25.8;39.3
79750;SHT31;69233;51.968;5.658;2023-11-21T09:07:57;25.7;39.7
79750;SHT31;69233;51.968;5.658;2023-11-21T09:10:25;25.7;39.7
79750;SHT31;69233;51.968;5.658;2023-11-21T09:12:55;25.7;39.7
79750;SHT31;69233;51.968;5.658;2023-11-21T09:15:23;25.7;39.8
79750;SHT31;69233;51.968;5.658;2023-11-21T09:17:51;25.7;39.9
79750;SHT31;69233;51.968;5.658;2023-11-21T09:20:20;25.7;39.9
79750;SHT31;69233;51.968;5.658;2023-11-21T09:22:49;25.6;40.0
79750;SHT31;69233;51.968;5.658;2023-11-21T09:25:18;25.6;40.0
79750;SHT31;69233;51.968;5.658;2023-11-21T09:27:49;25.6;40.1
79750;SHT31;69233;51.968;5.658;2023-11-21T09:30:18;25.6;40.1
79750;SHT31;69233;51.968;5.658;2023-11-21T09:32:46;25.6;40.1
79750;SHT31;69233;51.968;5.658;2023-11-21T09:35:15;25.5;40.2
79750;SHT31;69233;51.968;5.658;2023-11-21T09:37:45;25.5;40.3
79750;SHT31;69233;51.968;5.658;2023-11-21T09:40:14;25.5;40.3
79750;SHT31;69233;51.968;5.658;2023-11-21T09:42:51;25.5;40.3
79750;SHT31;69233;51.968;5.658;2023-11-21T09:45:25;25.5;40.3
79750;SHT31;69233;51.968;5.658;2023-11-21T09:47:56;25.5;40.4
79750;SHT31;69233;51.968;5.658;2023-11-21T09:50:26;25.5;40.5
79750;SHT31;69233;51.968;5.658;2023-11-21T09:53:09;25.4;40.5
79750;SHT31;69233;51.968;5.658;2023-11-21T09:55:43;25.4;40.5
79750;SHT31;69233;51.968;5.658;2023-11-21T09:58:14;25.4;40.5
79750;SHT31;69233;51.968;5.658;2023-11-21T10:00:45;25.4;40.4
79750;SHT31;69233;51.968;5.658;2023-11-21T10:03:15;25.4;40.5
79750;SHT31;69233;51.968;5.658;2023-11-21T10:05:45;25.4;40.6
79750;SHT31;69233;51.968;5.658;2023-11-21T10:08:14;25.4;40.6
79750;SHT31;69233;51.968;5.658;2023-11-21T10:10:46;25.4;40.7
79750;SHT31;69233;51.968;5.658;2023-11-21T10:13:15;25.4;40.9
79750;SHT31;69233;51.968;5.658;2023-11-21T10:15:51;25.4;40.8
79750;SHT31;69233;51.968;5.658;2023-11-21T10:18:22;25.4;40.9
79750;SHT31;69233;51.968;5.658;2023-11-21T10:20:54;25.4;40.9
79750;SHT31;69233;51.968;5.658;2023-11-21T10:23:23;25.4;41.0
79750;SHT31;69233;51.968;5.658;2023-11-21T10:25:53;25.4;41.0
79750;SHT31;69233;51.968;5.658;2023-11-21T10:28:22;25.4;41.0
79750;SHT31;69233;51.968;5.658;2023-11-21T10:30:51;25.4;41.0
79750;SHT31;69233;51.968;5.658;2023-11-21T10:33:29;25.4;40.9
79750;SHT31;69233;51.968;5.658;2023-11-21T10:36:00;25.4;41.0
79750;SHT31;69233;51.968;5.658;2023-11-21T10:38:33;25.4;41.0
79750;SHT31;69233;51.968;5.658;2023-11-21T10:41:04;25.4;40.9
79750;SHT31;69233;51.968;5.658;2023-11-21T10:43:33;25.4;41.0
79750;SHT31;69233;51.968;5.658;2023-11-21T10:46:07;25.4;41.0
79750;SHT31;69233;51.968;5.658;2023-11-21T10:48:36;25.4;41.0
79750;SHT31;69233;51.968;5.658;2023-11-21T10:51:10;25.4;41.0
79750;SHT31;69233;51.968;5.658;2023-11-21T10:53:42;25.4;41.1
79750;SHT31;69233;51.968;5.658;2023-11-21T10:56:14;25.4;41.1
79750;SHT31;69233;51.968;5.658;2023-11-21T10:58:48;25.4;41.0
79750;SHT31;69233;51.968;5.658;2023-11-21T11:01:19;25.4;41.1
79750;SHT31;69233;51.968;5.658;2023-11-21T11:03:50;25.4;40.8
79750;SHT31;69233;51.968;5.658;2023-11-21T11:06:24;25.4;41.0
79750;SHT31;69233;51.968;5.658;2023-11-21T11:08:53;25.4;40.9
79750;SHT31;69233;51.968;5.658;2023-11-21T11:11:25;25.4;41.0
79750;SHT31;69233;51.968;5.658;2023-11-21T11:13:54;25.4;41.0
79750;SHT31;69233;51.968;5.658;2023-11-21T11:16:23;25.4;41.0
79750;SHT31;69233;51.968;5.658;2023-11-21T11:18:53;25.4;41.0
79750;SHT31;69233;51.968;5.658;2023-11-21T11:21:34;25.4;41.0
79750;SHT31;69233;51.968;5.658;2023-11-21T11:24:32;25.4;40.9
79750;SHT31;69233;51.968;5.658;2023-11-21T11:27:14;25.4;41.1
79750;SHT31;69233;51.968;5.658;2023-11-21T11:29:59;25.4;41.1
79750;SHT31;69233;51.968;5.658;2023-11-21T11:32:39;25.4;41.1
79750;SHT31;69233;51.968;5.658;2023-11-21T11:35:17;25.4;41.2
79750;SHT31;69233;51.968;5.658;2023-11-21T11:37:48;25.4;41.2
79750;SHT31;69233;51.968;5.658;2023-11-21T11:40:16;25.4;41.1
79750;SHT31;69233;51.968;5.658;2023-11-21T11:42:57;25.4;41.3
79750;SHT31;69233;51.968;5.658;2023-11-21T11:45:34;25.4;41.3
79750;SHT31;69233;51.968;5.658;2023-11-21T11:48:08;25.4;41.3
79750;SHT31;69233;51.968;5.658;2023-11-21T11:50:42;25.4;41.4
79750;SHT31;69233;51.968;5.658;2023-11-21T11:53:15;25.4;41.4
79750;SHT31;69233;51.968;5.658;2023-11-21T11:55:44;25.4;41.4
79750;SHT31;69233;51.968;5.658;2023-11-21T11:58:13;25.4;41.4
79750;SHT31;69233;51.968;5.658;2023-11-21T12:00:43;25.4;41.5
79750;SHT31;69233;51.968;5.658;2023-11-21T12:03:15;25.4;41.4
79750;SHT31;69233;51.968;5.658;2023-11-21T12:05:46;25.4;41.5
79750;SHT31;69233;51.968;5.658;2023-11-21T12:08:16;25.4;41.4
79750;SHT31;69233;51.968;5.658;2023-11-21T12:10:44;25.4;41.4
79750;SHT31;69233;51.968;5.658;2023-11-21T12:13:16;25.4;41.3
79750;SHT31;69233;51.968;5.658;2023-11-21T12:15:45;25.4;41.3
79750;SHT31;69233;51.968;5.658;2023-11-21T12:18:14;25.4;41.3
79750;SHT31;69233;51.968;5.658;2023-11-21T12:20:42;25.4;41.4
79750;SHT31;69233;51.968;5.658;2023-11-21T12:23:15;25.4;41.4
79750;SHT31;69233;51.968;5.658;2023-11-21T12:25:45;25.4;41.4
79750;SHT31;69233;51.968;5.658;2023-11-21T12:28:13;25.4;41.4
79750;SHT31;69233;51.968;5.658;2023-11-21T12:30:43;25.4;41.4
79750;SHT31;69233;51.968;5.658;2023-11-21T12:33:12;25.4;41.4
79750;SHT31;69233;51.968;5.658;2023-11-21T12:35:44;25.4;41.5
79750;SHT31;69233;51.968;5.658;2023-11-21T12:38:13;25.4;41.5
79750;SHT31;69233;51.968;5.658;2023-11-21T12:40:44;25.4;41.5
79750;SHT31;69233;51.968;5.658;2023-11-21T12:43:12;25.4;41.5
79750;SHT31;69233;51.968;5.658;2023-11-21T12:45:41;25.4;41.5
79750;SHT31;69233;51.968;5.658;2023-11-21T12:48:10;25.4;41.5
79750;SHT31;69233;51.968;5.658;2023-11-21T12:50:39;25.4;41.5
79750;SHT31;69233;51.968;5.658;2023-11-21T12:53:10;25.4;41.5
79750;SHT31;69233;51.968;5.658;2023-11-21T12:55:40;25.4;41.5
79750;SHT31;69233;51.968;5.658;2023-11-21T12:58:09;25.4;41.6
79750;SHT31;69233;51.968;5.658;2023-11-21T13:00:42;25.4;41.5
79750;SHT31;69233;51.968;5.658;2023-11-21T13:03:13;25.4;41.5
79750;SHT31;69233;51.968;5.658;2023-11-21T13:05:45;25.4;41.6
79750;SHT31;69233;51.968;5.658;2023-11-21T13:08:17;25.4;41.5
79750;SHT31;69233;51.968;5.658;2023-11-21T13:10:51;25.4;41.5
79750;SHT31;69233;51.968;5.658;2023-11-21T13:13:22;25.4;41.6
79750;SHT31;69233;51.968;5.658;2023-11-21T13:15:53;25.4;41.5
79750;SHT31;69233;51.968;5.658;2023-11-21T13:18:22;25.4;41.5
79750;SHT31;69233;51.968;5.658;2023-11-21T13:20:55;25.5;41.6
79750;SHT31;69233;51.968;5.658;2023-11-21T13:23:25;25.5;41.5
79750;SHT31;69233;51.968;5.658;2023-11-21T13:25:55;25.5;41.6
79750;SHT31;69233;51.968;5.658;2023-11-21T13:28:24;25.5;41.6
79750;SHT31;69233;51.968;5.658;2023-11-21T13:30:58;25.5;41.6
79750;SHT31;69233;51.968;5.658;2023-11-21T13:33:33;25.5;41.6
79750;SHT31;69233;51.968;5.658;2023-11-21T13:36:05;25.5;41.7
79750;SHT31;69233;51.968;5.658;2023-11-21T13:38:35;25.5;41.6
79750;SHT31;69233;51.968;5.658;2023-11-21T13:41:08;25.5;41.6
79750;SHT31;69233;51.968;5.658;2023-11-21T13:43:39;25.5;41.6
79750;SHT31;69233;51.968;5.658;2023-11-21T13:46:10;25.5;41.6
79750;SHT31;69233;51.968;5.658;2023-11-21T13:48:41;25.5;41.6
79750;SHT31;69233;51.968;5.658;2023-11-21T13:51:15;25.5;41.6
79750;SHT31;69233;51.968;5.658;2023-11-21T13:53:45;25.5;41.7
79750;SHT31;69233;51.968;5.658;2023-11-21T13:56:16;25.5;41.7
79750;SHT31;69233;51.968;5.658;2023-11-21T13:58:50;25.5;41.6
79750;SHT31;69233;51.968;5.658;2023-11-21T14:01:22;25.5;41.7
79750;SHT31;69233;51.968;5.658;2023-11-21T14:04:06;25.5;41.7
79750;SHT31;69233;51.968;5.658;2023-11-21T14:06:42;25.5;41.6
79750;SHT31;69233;51.968;5.658;2023-11-21T14:09:14;25.5;41.7
79750;SHT31;69233;51.968;5.658;2023-11-21T14:11:48;25.5;41.7
79750;SHT31;69233;51.968;5.658;2023-11-21T14:14:17;25.5;41.6
79750;SHT31;69233;51.968;5.658;2023-11-21T14:16:46;25.5;41.7
79750;SHT31;69233;51.968;5.658;2023-11-21T14:19:16;25.5;41.7
79750;SHT31;69233;51.968;5.658;2023-11-21T14:21:45;25.5;41.8
79750;SHT31;69233;51.968;5.658;2023-11-21T14:24:15;25.5;41.7
79750;SHT31;69233;51.968;5.658;2023-11-21T14:26:46;25.5;41.7
79750;SHT31;69233;51.968;5.658;2023-11-21T14:29:17;25.5;41.9
79750;SHT31;69233;51.968;5.658;2023-11-21T14:31:47;25.5;41.8
79750;SHT31;69233;51.968;5.658;2023-11-21T14:34:17;25.5;41.8
79750;SHT31;69233;51.968;5.658;2023-11-21T14:36:46;25.5;41.9
79750;SHT31;69233;51.968;5.658;2023-11-21T14:39:15;25.5;41.8
79750;SHT31;69233;51.968;5.658;2023-11-21T14:41:49;25.5;42.0
79750;SHT31;69233;51.968;5.658;2023-11-21T14:44:19;25.4;41.9
79750;SHT31;69233;51.968;5.658;2023-11-21T14:46:52;25.4;41.9
79750;SHT31;69233;51.968;5.658;2023-11-21T14:49:25;25.4;41.7
79750;SHT31;69233;51.968;5.658;2023-11-21T14:51:58;25.4;41.8
79750;SHT31;69233;51.968;5.658;2023-11-21T14:54:31;25.4;41.8
79750;SHT31;69233;51.968;5.658;2023-11-21T14:57:13;25.5;41.5
79750;SHT31;69233;51.968;5.658;2023-11-21T14:59:47;25.5;41.6
79750;SHT31;69233;51.968;5.658;2023-11-21T15:02:18;25.5;41.7
79750;SHT31;69233;51.968;5.658;2023-11-21T15:04:49;25.5;41.6
79750;SHT31;69233;51.968;5.658;2023-11-21T15:07:23;25.5;41.7
79750;SHT31;69233;51.968;5.658;2023-11-21T15:09:54;25.4;41.7
79750;SHT31;69233;51.968;5.658;2023-11-21T15:12:22;25.4;41.7
79750;SHT31;69233;51.968;5.658;2023-11-21T15:14:53;25.4;41.6
79750;SHT31;69233;51.968;5.658;2023-11-21T15:17:24;25.4;41.6
79750;SHT31;69233;51.968;5.658;2023-11-21T15:19:54;25.4;41.6
79750;SHT31;69233;51.968;5.658;2023-11-21T15:22:25;25.4;41.6
79750;SHT31;69233;51.968;5.658;2023-11-21T15:24:54;25.4;41.7
79750;SHT31;69233;51.968;5.658;2023-11-21T15:27:24;25.4;41.7
79750;SHT31;69233;51.968;5.658;2023-11-21T15:29:54;25.4;41.7
79750;SHT31;69233;51.968;5.658;2023-11-21T15:32:23;25.4;41.8
79750;SHT31;69233;51.968;5.658;2023-11-21T15:34:52;25.4;41.5
79750;SHT31;69233;51.968;5.658;2023-11-21T15:37:23;25.4;41.5
79750;SHT31;69233;51.968;5.658;2023-11-21T15:39:54;25.4;41.4
79750;SHT31;69233;51.968;5.658;2023-11-21T15:42:23;25.4;41.3
79750;SHT31;69233;51.968;5.658;2023-11-21T15:44:53;25.4;41.4
79750;SHT31;69233;51.968;5.658;2023-11-21T15:47:22;25.5;41.4
79750;SHT31;69233;51.968;5.658;2023-11-21T15:49:51;25.5;41.4
79750;SHT31;69233;51.968;5.658;2023-11-21T15:52:19;25.5;41.3
79750;SHT31;69233;51.968;5.658;2023-11-21T15:54:48;25.5;41.3
79750;SHT31;69233;51.968;5.658;2023-11-21T15:57:16;25.5;41.3
79750;SHT31;69233;51.968;5.658;2023-11-21T15:59:48;25.5;41.2
79750;SHT31;69233;51.968;5.658;2023-11-21T16:02:17;25.5;41.2
79750;SHT31;69233;51.968;5.658;2023-11-21T16:04:46;25.5;41.2
79750;SHT31;69233;51.968;5.658;2023-11-21T16:07:14;25.5;41.1
79750;SHT31;69233;51.968;5.658;2023-11-21T16:09:44;25.5;41.0
79750;SHT31;69233;51.968;5.658;2023-11-21T16:12:13;25.6;41.0
79750;SHT31;69233;51.968;5.658;2023-11-21T16:14:41;25.6;41.0
79750;SHT31;69233;51.968;5.658;2023-11-21T16:17:12;25.6;40.9
79750;SHT31;69233;51.968;5.658;2023-11-21T16:19:44;25.6;41.0
79750;SHT31;69233;51.968;5.658;2023-11-21T16:22:15;25.6;40.9